Coral Coast — WDF5120 — position and weather

sailwx.info

Track history (hours):
 
Tides and Currents Weather Stations Pressure Air Temp Water Temp Dewpoint Dewpoint Depression Visibility Wind Speed Wind Dir Waves Ship Positions

Coral Coast

Owner: Dann MarineTowing, LC., Chesapeake City, MD. More information available from US FCC via Universal Licensing System and Coast Guard Vessel Documentation Center.

Last reported at 2014-Nov-28 21:31 UTC. Time now 2014-Nov-29 02:25 UTC.
Position N 34°27' W 076°18'.

Length 70 m; draft 5.3 m.

Type: Tug. MMSI: 367459570.

Date/timePositionNaut miles runAvg speedWind from/ knotsBaromVisibWave heightAir tempDewpointWater temp
2014-Nov-28 21:31N 34°27' W 076°18'  
2014-Nov-21 01:30N 39°26' W 074°10'8 8.3
2014-Nov-21 00:34N 39°33' W 074°05'8 8.2
2014-Nov-20 23:33N 39°41' W 074°01'8 7.8
2014-Nov-20 22:33N 39°48' W 073°58'41 8.1
2014-Nov-20 17:30N 40°29' W 073°56'9 9.6
2014-Nov-20 16:33N 40°37' W 074°03'4 3.9
2014-Nov-20 15:34N 40°40' W 074°00'0 0.0
2014-Nov-20 14:34N 40°40' W 074°00'1 1.0
2014-Nov-20 13:34N 40°40' W 074°01'7 7.1
2014-Nov-20 12:30N 40°47' W 073°56'4 0.6
2014-Nov-20 05:13N 40°46' W 073°51'0 0.0
2014-Nov-20 00:03N 40°46' W 073°51'0 0.0
2014-Nov-19 22:10N 40°46' W 073°51'3 0.2
2014-Nov-19 01:27N 40°48' W 073°54'8 9.1
2014-Nov-19 00:34N 40°42' W 074°00'6 6.1
2014-Nov-18 23:34N 40°39' W 074°07'2 2.0
2014-Nov-18 22:31N 40°39' W 074°10'0 0.0
2014-Nov-18 21:32N 40°39' W 074°10'  
Track history (hours):
 
Tides and Currents Weather Stations Pressure Air Temp Water Temp Dewpoint Dewpoint Depression Visibility Wind Speed Wind Dir Waves Ship Positions

Coral Coast

Owner: Dann MarineTowing, LC., Chesapeake City, MD. More information available from US FCC via Universal Licensing System and Coast Guard Vessel Documentation Center.

Last reported at 2014-Nov-28 21:31 UTC. Time now 2014-Nov-29 02:25 UTC.
Position N 34°27' W 076°18'.

Length 70 m; draft 5.3 m.

Type: Tug. MMSI: 367459570.

Date/timePositionNaut miles runAvg speedWind from/ knotsBaromVisibWave heightAir tempDewpointWater temp
2014-Nov-28 21:31N 34°27' W 076°18'  
2014-Nov-21 01:30N 39°26' W 074°10'8 8.3
2014-Nov-21 00:34N 39°33' W 074°05'8 8.2
2014-Nov-20 23:33N 39°41' W 074°01'8 7.8
2014-Nov-20 22:33N 39°48' W 073°58'41 8.1
2014-Nov-20 17:30N 40°29' W 073°56'9 9.6
2014-Nov-20 16:33N 40°37' W 074°03'4 3.9
2014-Nov-20 15:34N 40°40' W 074°00'0 0.0
2014-Nov-20 14:34N 40°40' W 074°00'1 1.0
2014-Nov-20 13:34N 40°40' W 074°01'7 7.1
2014-Nov-20 12:30N 40°47' W 073°56'4 0.6
2014-Nov-20 05:13N 40°46' W 073°51'0 0.0
2014-Nov-20 00:03N 40°46' W 073°51'0 0.0
2014-Nov-19 22:10N 40°46' W 073°51'3 0.2
2014-Nov-19 01:27N 40°48' W 073°54'8 9.1
2014-Nov-19 00:34N 40°42' W 074°00'6 6.1
2014-Nov-18 23:34N 40°39' W 074°07'2 2.0
2014-Nov-18 22:31N 40°39' W 074°10'0 0.0
2014-Nov-18 21:32N 40°39' W 074°10'  

Dump ship's entire track history